Time;durP1;ratioP1;P1;durP2;ratioP2;P2;SDS_P1;SDS_P2;PMS_P1;PMS_P2;Temp;Humidity;BMP_temperature;BMP_pressure;BME280_temperature;BME280_humidity;BME280_pressure;Samples;Min_cycle;Max_cycle;Signal;HPM_P1;HPM_P2
2023/06/28 00:01:55;;;;;;;5.93;2.80;;;19.40;12.90;;;;;;5025215;28;20562;-64
2023/06/28 00:04:22;;;;;;;9.10;3.90;;;19.40;12.90;;;;;;5030210;28;20489;-64
2023/06/28 00:06:49;;;;;;;6.50;3.30;;;19.40;12.50;;;;;;5031200;28;20862;-65
2023/06/28 00:09:17;;;;;;;11.73;3.17;;;19.40;12.10;;;;;;5027590;28;20458;-65
2023/06/28 00:11:45;;;;;;;8.77;3.40;;;19.40;12.20;;;;;;5031900;28;20462;-65
2023/06/28 00:14:11;;;;;;;8.90;3.30;;;19.40;12.10;;;;;;5032106;28;20487;-65
2023/06/28 00:16:38;;;;;;;6.77;3.50;;;19.40;11.80;;;;;;5030481;28;20985;-65
2023/06/28 00:19:06;;;;;;;5.67;3.10;;;19.40;11.60;;;;;;5029975;28;20463;-65
2023/06/28 00:21:33;;;;;;;7.73;3.20;;;19.30;11.50;;;;;;5030222;28;20466;-64
2023/06/28 00:24:00;;;;;;;6.07;3.43;;;19.30;11.40;;;;;;5034354;28;20500;-65
2023/06/28 00:26:28;;;;;;;6.37;3.53;;;19.30;11.40;;;;;;5027706;28;20478;-65
2023/06/28 00:28:55;;;;;;;6.93;3.70;;;19.30;11.30;;;;;;5024584;28;21253;-65
2023/06/28 00:31:22;;;;;;;6.37;3.50;;;19.30;11.40;;;;;;5035110;28;20478;-64
2023/06/28 00:33:48;;;;;;;7.27;3.50;;;19.30;11.30;;;;;;5035300;28;20506;-64
2023/06/28 00:36:15;;;;;;;11.33;4.03;;;19.30;11.40;;;;;;5027259;28;20483;-65
2023/06/28 00:38:42;;;;;;;8.73;3.53;;;19.40;11.30;;;;;;5030411;28;20467;-65
2023/06/28 00:41:09;;;;;;;9.13;3.53;;;19.50;11.60;;;;;;5035811;28;20546;-64
2023/06/28 00:43:38;;;;;;;7.33;3.83;;;19.50;11.50;;;;;;5032726;28;20487;-64
2023/06/28 00:46:05;;;;;;;9.30;3.63;;;19.50;11.60;;;;;;5032030;28;20459;-65
2023/06/28 00:48:32;;;;;;;5.83;3.07;;;19.50;11.90;;;;;;5035587;28;21049;-64
2023/06/28 00:50:59;;;;;;;6.23;3.30;;;19.40;12.30;;;;;;5029658;28;20463;-64
2023/06/28 00:53:27;;;;;;;7.47;3.80;;;19.40;12.50;;;;;;5028718;28;21045;-64
2023/06/28 00:55:53;;;;;;;9.83;3.43;;;19.30;13.00;;;;;;5027874;28;20474;-65
2023/06/28 00:58:20;;;;;;;6.90;3.37;;;19.30;13.40;;;;;;5026998;28;20557;-64
2023/06/28 01:03:23;;;;;;;8.03;3.50;;;19.30;14.00;;;;;;5057871;28;20551;-71
2023/06/28 01:05:51;;;;;;;9.10;3.30;;;19.30;13.70;;;;;;5047451;28;20950;-72
2023/06/28 01:08:19;;;;;;;7.10;3.87;;;19.30;13.90;;;;;;5044733;28;20461;-71
2023/06/28 01:10:47;;;;;;;6.53;3.07;;;19.30;13.60;;;;;;5042796;28;20484;-71
2023/06/28 01:13:14;;;;;;;5.67;2.63;;;19.40;13.60;;;;;;5054384;28;20497;-72
2023/06/28 01:15:41;;;;;;;6.70;3.40;;;19.40;13.40;;;;;;5049576;28;20485;-72
2023/06/28 01:18:07;;;;;;;7.30;3.40;;;19.40;13.10;;;;;;5049128;28;20485;-71
2023/06/28 01:20:35;;;;;;;9.57;3.67;;;19.40;12.80;;;;;;5049327;28;20465;-70
2023/06/28 01:23:05;;;;;;;7.17;2.97;;;19.40;12.70;;;;;;5048259;28;20489;-72
2023/06/28 01:25:32;;;;;;;6.93;3.00;;;19.30;13.00;;;;;;5045304;28;20468;-71
2023/06/28 01:27:59;;;;;;;8.60;3.87;;;19.30;12.70;;;;;;5047051;28;20508;-71
2023/06/28 01:30:26;;;;;;;9.83;3.37;;;19.40;12.90;;;;;;5047714;28;20524;-71
2023/06/28 01:32:53;;;;;;;7.00;3.40;;;19.30;13.30;;;;;;5047870;28;20482;-71
2023/06/28 01:35:20;;;;;;;7.43;3.23;;;19.40;13.50;;;;;;5043656;28;20491;-71
2023/06/28 01:37:47;;;;;;;9.53;2.90;;;19.30;14.10;;;;;;5053039;28;20468;-72
2023/06/28 01:40:16;;;;;;;8.03;3.53;;;19.30;13.50;;;;;;5049169;28;20935;-71
2023/06/28 01:42:43;;;;;;;7.60;2.93;;;19.30;12.60;;;;;;5053104;28;20490;-71
2023/06/28 01:45:12;;;;;;;7.37;2.20;;;19.30;11.50;;;;;;5042556;28;20466;-72
2023/06/28 01:47:39;;;;;;;6.20;2.80;;;19.30;10.20;;;;;;5054171;28;20472;-71
2023/06/28 01:50:07;;;;;;;6.93;3.20;;;19.30;10.60;;;;;;5045638;28;20474;-72
2023/06/28 01:52:34;;;;;;;8.50;2.80;;;19.30;10.20;;;;;;5048730;28;20470;-72
2023/06/28 01:55:01;;;;;;;10.33;2.90;;;19.30;10.30;;;;;;5064321;28;20465;-71
2023/06/28 01:57:29;;;;;;;7.87;2.53;;;19.30;10.40;;;;;;5052646;28;20477;-71
2023/06/28 01:59:56;;;;;;;6.30;2.70;;;19.20;10.60;;;;;;5054268;28;20469;-71
2023/06/28 02:02:22;;;;;;;6.07;2.40;;;19.20;10.70;;;;;;5046572;28;21045;-71
2023/06/28 02:04:49;;;;;;;6.03;2.50;;;19.10;10.80;;;;;;5056008;28;20462;-71
2023/06/28 02:07:16;;;;;;;9.67;2.50;;;19.10;10.90;;;;;;5056518;28;20479;-70
2023/06/28 02:09:42;;;;;;;9.03;2.40;;;19.10;10.90;;;;;;5053141;28;20469;-72
2023/06/28 02:12:10;;;;;;;7.63;2.70;;;19.10;11.00;;;;;;5048998;28;20462;-71
2023/06/28 02:14:39;;;;;;;6.90;2.90;;;19.00;11.00;;;;;;5052799;28;20490;-71
2023/06/28 02:17:13;;;;;;;8.00;2.70;;;19.00;11.40;;;;;;5055656;28;20558;-71
2023/06/28 02:19:40;;;;;;;7.93;2.97;;;18.90;11.50;;;;;;5050213;28;20464;-71
2023/06/28 02:22:08;;;;;;;5.77;2.60;;;18.80;11.60;;;;;;5056821;28;20467;-73
2023/06/28 02:24:35;;;;;;;7.70;2.60;;;18.80;11.80;;;;;;5052952;28;20509;-72
2023/06/28 02:27:02;;;;;;;5.90;2.63;;;18.80;12.10;;;;;;5057232;28;20496;-71
2023/06/28 02:29:28;;;;;;;9.73;3.43;;;18.70;12.60;;;;;;5054161;28;21231;-71
2023/06/28 02:31:56;;;;;;;6.47;2.40;;;18.70;13.10;;;;;;5059849;28;20487;-71
2023/06/28 02:34:23;;;;;;;6.93;2.90;;;18.60;13.70;;;;;;5057146;28;20485;-72
2023/06/28 02:36:50;;;;;;;5.97;2.60;;;18.50;14.30;;;;;;5055851;28;21104;-71
2023/06/28 02:39:16;;;;;;;7.30;2.77;;;18.50;14.40;;;;;;5050199;28;20493;-71
2023/06/28 02:41:43;;;;;;;7.67;3.13;;;18.40;14.60;;;;;;5055743;28;20469;-71
2023/06/28 02:44:10;;;;;;;7.40;2.97;;;18.30;15.30;;;;;;5052102;28;20489;-72
2023/06/28 02:46:36;;;;;;;10.10;4.13;;;18.30;15.70;;;;;;5052298;28;20470;-72
2023/06/28 02:49:06;;;;;;;12.00;4.03;;;18.20;16.00;;;;;;5054300;28;20844;-71
2023/06/28 02:51:32;;;;;;;8.13;3.17;;;18.10;16.50;;;;;;5051523;28;20453;-71
2023/06/28 02:53:59;;;;;;;8.97;3.47;;;18.00;16.90;;;;;;5049496;28;20483;-71
2023/06/28 02:56:26;;;;;;;8.57;3.80;;;17.90;17.20;;;;;;5051052;28;20787;-72
2023/06/28 02:58:53;;;;;;;8.70;3.07;;;17.90;17.50;;;;;;5056997;28;20493;-72
2023/06/28 03:01:20;;;;;;;9.97;3.07;;;17.80;17.70;;;;;;5056589;28;20469;-73
2023/06/28 03:03:47;;;;;;;10.50;3.43;;;17.70;18.30;;;;;;5054872;28;20497;-71
2023/06/28 03:06:16;;;;;;;8.43;3.47;;;17.70;18.40;;;;;;5048368;28;20458;-71
2023/06/28 03:08:42;;;;;;;8.40;3.97;;;17.60;18.90;;;;;;5055294;28;20489;-71
2023/06/28 03:11:09;;;;;;;7.00;3.17;;;17.50;19.10;;;;;;5053824;28;20496;-71
2023/06/28 03:13:36;;;;;;;8.10;3.73;;;17.40;19.60;;;;;;5051132;28;20485;-71
2023/06/28 03:16:03;;;;;;;8.13;2.97;;;17.40;19.60;;;;;;5053451;28;20465;-72
2023/06/28 03:18:30;;;;;;;7.03;3.23;;;17.30;19.90;;;;;;5047439;28;20482;-71
2023/06/28 03:20:56;;;;;;;8.90;3.30;;;17.20;20.10;;;;;;5053388;28;20456;-71
2023/06/28 03:23:24;;;;;;;7.60;3.53;;;17.20;20.20;;;;;;5054643;28;20485;-71
2023/06/28 03:25:52;;;;;;;7.83;3.57;;;17.20;20.30;;;;;;5051169;28;21022;-71
2023/06/28 03:28:19;;;;;;;9.77;3.73;;;17.10;20.80;;;;;;5051714;28;20512;-71
2023/06/28 03:30:46;;;;;;;7.60;3.70;;;17.10;20.70;;;;;;5044971;28;20484;-71
2023/06/28 03:33:12;;;;;;;5.60;2.70;;;17.10;20.90;;;;;;5051378;28;20852;-71
2023/06/28 03:35:39;;;;;;;6.77;3.07;;;17.00;20.90;;;;;;5046334;28;20811;-69
2023/06/28 03:38:06;;;;;;;7.23;3.20;;;17.00;21.10;;;;;;5049905;28;20482;-70
2023/06/28 03:40:36;;;;;;;9.80;3.60;;;16.90;21.40;;;;;;5056052;28;20469;-71
2023/06/28 03:43:03;;;;;;;7.03;3.93;;;16.90;21.70;;;;;;5047645;28;20493;-70
2023/06/28 03:45:29;;;;;;;12.70;4.30;;;16.90;22.20;;;;;;5055512;28;20477;-72
2023/06/28 03:47:56;;;;;;;6.43;3.20;;;16.80;22.50;;;;;;5052918;28;20497;-72
2023/06/28 03:50:23;;;;;;;6.53;3.90;;;16.80;22.70;;;;;;5043509;28;20470;-72
2023/06/28 03:52:50;;;;;;;7.13;3.60;;;16.80;22.60;;;;;;5049502;28;20490;-72
2023/06/28 03:55:17;;;;;;;7.53;3.70;;;16.90;22.50;;;;;;5054019;28;20845;-72
2023/06/28 03:57:45;;;;;;;11.00;3.73;;;16.90;22.60;;;;;;5041099;28;20481;-71
2023/06/28 04:00:12;;;;;;;10.60;4.10;;;17.00;22.40;;;;;;5052069;28;20458;-72
2023/06/28 04:02:40;;;;;;;7.50;3.60;;;17.00;22.10;;;;;;5047275;28;20509;-71
2023/06/28 04:05:07;;;;;;;7.47;4.30;;;17.00;22.00;;;;;;5051274;28;20457;-71
2023/06/28 04:07:34;;;;;;;6.00;3.00;;;17.00;21.90;;;;;;5057266;28;20829;-72
2023/06/28 04:10:01;;;;;;;6.47;3.40;;;17.10;22.10;;;;;;5054644;28;20464;-72
2023/06/28 04:12:28;;;;;;;7.10;3.37;;;17.10;21.40;;;;;;5053771;28;20850;-72
2023/06/28 04:14:56;;;;;;;6.73;2.90;;;17.20;20.90;;;;;;5051716;28;20461;-72
2023/06/28 04:17:22;;;;;;;10.90;4.77;;;17.20;20.70;;;;;;5053438;28;20473;-71
2023/06/28 04:19:49;;;;;;;7.10;3.53;;;17.20;20.80;;;;;;5053033;28;20469;-71
2023/06/28 04:22:16;;;;;;;8.07;4.00;;;17.30;20.60;;;;;;5049197;28;20458;-71
2023/06/28 04:24:42;;;;;;;9.07;3.17;;;17.30;20.70;;;;;;5050749;28;20887;-71
2023/06/28 04:27:09;;;;;;;9.63;3.60;;;17.30;20.30;;;;;;5053226;28;20458;-72
2023/06/28 04:29:36;;;;;;;8.80;3.43;;;17.30;20.30;;;;;;5046460;28;20462;-72
2023/06/28 04:32:20;;;;;;;7.43;2.93;;;17.40;20.00;;;;;;5054248;28;20469;-72
2023/06/28 04:34:47;;;;;;;9.30;3.13;;;17.30;19.90;;;;;;5051774;28;20473;-72
2023/06/28 04:37:14;;;;;;;7.30;3.17;;;17.40;19.90;;;;;;5051277;28;20483;-72
2023/06/28 04:39:41;;;;;;;9.30;3.10;;;17.30;19.80;;;;;;5051279;28;20481;-71
2023/06/28 04:42:08;;;;;;;9.43;3.30;;;17.40;19.40;;;;;;5052271;28;20494;-71
2023/06/28 04:44:36;;;;;;;6.03;3.27;;;17.40;19.50;;;;;;5049270;28;20482;-71
2023/06/28 04:47:04;;;;;;;7.40;2.97;;;17.40;19.40;;;;;;5056904;28;20461;-71
2023/06/28 04:49:31;;;;;;;8.37;3.20;;;17.40;19.40;;;;;;5052662;28;20495;-72
2023/06/28 04:51:58;;;;;;;6.73;3.07;;;17.40;19.40;;;;;;5054676;28;20458;-71
2023/06/28 04:54:25;;;;;;;7.17;3.80;;;17.50;19.00;;;;;;5051688;28;21137;-71
2023/06/28 04:56:51;;;;;;;7.00;3.40;;;17.40;19.00;;;;;;5051942;28;20513;-71
2023/06/28 04:59:18;;;;;;;5.90;3.07;;;17.40;19.20;;;;;;5047881;28;20469;-72
2023/06/28 05:01:45;;;;;;;6.77;2.90;;;17.50;19.30;;;;;;5046039;28;20474;-72
2023/06/28 05:04:13;;;;;;;7.97;3.10;;;17.50;19.00;;;;;;5045890;28;20485;-72
2023/06/28 05:06:40;;;;;;;6.97;3.00;;;17.50;18.90;;;;;;5050373;28;21270;-72
2023/06/28 05:09:06;;;;;;;9.03;3.20;;;17.50;19.00;;;;;;5051680;28;20980;-71
2023/06/28 05:11:33;;;;;;;7.20;2.73;;;17.50;19.00;;;;;;5048550;28;20481;-71
2023/06/28 05:13:59;;;;;;;5.80;2.97;;;17.50;19.00;;;;;;5050455;28;20490;-72
2023/06/28 05:16:26;;;;;;;7.23;3.40;;;17.50;18.70;;;;;;5055179;28;20469;-71
2023/06/28 05:18:53;;;;;;;9.23;3.20;;;17.50;19.00;;;;;;5051190;28;20486;-72
2023/06/28 05:21:21;;;;;;;7.90;3.30;;;17.50;19.20;;;;;;5050549;28;20457;-72
2023/06/28 05:23:48;;;;;;;6.43;3.13;;;17.50;19.20;;;;;;5050520;28;20497;-71
2023/06/28 05:26:14;;;;;;;7.07;3.40;;;17.50;19.50;;;;;;5052847;28;20465;-71
2023/06/28 05:28:41;;;;;;;7.10;3.03;;;17.50;19.40;;;;;;5065287;22;22558;-64
2023/06/28 05:31:08;;;;;;;7.03;3.20;;;17.50;19.40;;;;;;5056651;28;20465;-64
2023/06/28 05:33:34;;;;;;;7.60;3.83;;;17.60;19.10;;;;;;5055527;28;20493;-64
2023/06/28 05:36:01;;;;;;;7.90;3.10;;;17.60;19.00;;;;;;5047441;28;20949;-64
2023/06/28 05:38:29;;;;;;;7.77;2.83;;;17.60;18.90;;;;;;5059940;28;20468;-64
2023/06/28 05:41:11;;;;;;;7.27;3.50;;;17.70;18.60;;;;;;5077538;28;20442;-65
2023/06/28 05:43:38;;;;;;;7.33;3.30;;;17.70;18.60;;;;;;5061860;28;21071;-64
2023/06/28 05:46:04;;;;;;;7.70;3.17;;;17.80;19.10;;;;;;5048918;28;20465;-65
2023/06/28 05:48:31;;;;;;;8.03;3.67;;;17.80;18.60;;;;;;5051516;28;20454;-64
2023/06/28 05:50:58;;;;;;;6.73;3.13;;;17.90;18.40;;;;;;5054358;28;20812;-64
2023/06/28 05:53:25;;;;;;;9.17;3.30;;;18.00;17.90;;;;;;5051075;28;20477;-64
2023/06/28 05:55:53;;;;;;;8.53;4.10;;;18.00;17.80;;;;;;5055843;28;20460;-64
2023/06/28 05:58:20;;;;;;;8.67;3.23;;;18.00;18.00;;;;;;5052869;28;20481;-64
2023/06/28 06:00:46;;;;;;;6.43;3.27;;;18.00;17.90;;;;;;5045689;28;20595;-64
2023/06/28 06:03:13;;;;;;;8.20;3.50;;;18.10;17.90;;;;;;5048355;28;20493;-64
2023/06/28 06:05:40;;;;;;;8.80;3.40;;;18.10;17.60;;;;;;5052443;28;20503;-64
2023/06/28 06:08:07;;;;;;;8.17;3.20;;;18.10;17.60;;;;;;5053953;28;20455;-64
2023/06/28 06:10:33;;;;;;;9.20;4.10;;;18.10;17.60;;;;;;5050233;28;20462;-63
2023/06/28 06:13:01;;;;;;;10.77;4.33;;;18.10;17.60;;;;;;5051354;28;20476;-64
2023/06/28 06:15:28;;;;;;;9.50;3.40;;;18.10;17.70;;;;;;5049543;28;20481;-64
2023/06/28 06:17:55;;;;;;;7.97;3.50;;;18.10;17.60;;;;;;5045859;28;20485;-64
2023/06/28 06:20:22;;;;;;;9.13;3.70;;;18.10;17.60;;;;;;5050217;28;20465;-64
2023/06/28 06:22:49;;;;;;;6.10;3.13;;;18.10;17.70;;;;;;5050561;28;20481;-65
2023/06/28 06:25:16;;;;;;;6.37;3.00;;;18.20;17.80;;;;;;5046613;28;20458;-64
2023/06/28 06:27:43;;;;;;;10.57;4.00;;;18.20;17.90;;;;;;5055583;28;20461;-64
2023/06/28 06:30:13;;;;;;;8.40;3.37;;;18.20;18.00;;;;;;5045994;28;20462;-64
2023/06/28 06:32:40;;;;;;;5.70;3.00;;;18.20;18.00;;;;;;5048639;28;21095;-63
2023/06/28 06:35:07;;;;;;;7.13;3.70;;;18.20;17.90;;;;;;5048559;28;20454;-64
2023/06/28 06:37:34;;;;;;;9.60;3.50;;;18.30;17.90;;;;;;5052459;28;20805;-65
2023/06/28 06:40:01;;;;;;;7.73;3.40;;;18.40;17.70;;;;;;5054599;28;20497;-64
2023/06/28 06:42:28;;;;;;;8.60;3.70;;;18.40;17.40;;;;;;5055368;28;20557;-64
2023/06/28 06:44:54;;;;;;;7.60;3.23;;;18.50;17.20;;;;;;5053539;28;20492;-64
2023/06/28 06:47:22;;;;;;;7.43;3.17;;;18.60;17.10;;;;;;5053725;28;20461;-64
2023/06/28 06:49:49;;;;;;;13.07;3.63;;;18.70;17.00;;;;;;5055831;28;20462;-64
2023/06/28 06:52:16;;;;;;;7.33;3.50;;;18.90;16.80;;;;;;5054342;28;20465;-64
2023/06/28 06:54:42;;;;;;;6.87;3.00;;;19.00;16.70;;;;;;5054134;28;20482;-65
2023/06/28 06:57:09;;;;;;;7.27;2.80;;;19.10;16.50;;;;;;5055926;28;20466;-65
2023/06/28 06:59:36;;;;;;;7.70;3.20;;;19.20;16.30;;;;;;5054873;28;20868;-65
2023/06/28 07:02:03;;;;;;;11.63;3.50;;;19.40;16.00;;;;;;5054592;28;20477;-65
2023/06/28 07:04:31;;;;;;;7.83;3.60;;;19.50;15.90;;;;;;5052045;28;20478;-65
2023/06/28 07:06:57;;;;;;;7.50;3.50;;;19.60;16.20;;;;;;5050189;28;20484;-64
2023/06/28 07:09:26;;;;;;;6.77;3.57;;;19.80;15.40;;;;;;5050741;28;20469;-63
2023/06/28 07:11:53;;;;;;;5.57;3.03;;;19.90;15.20;;;;;;5051080;28;20549;-64
2023/06/28 07:14:20;;;;;;;7.03;3.30;;;20.10;14.70;;;;;;5047007;28;20489;-64
2023/06/28 07:16:46;;;;;;;8.67;3.50;;;20.20;14.40;;;;;;5050582;28;20453;-64
2023/06/28 07:19:13;;;;;;;6.27;3.30;;;20.30;13.90;;;;;;5049680;28;20478;-65
2023/06/28 07:21:41;;;;;;;8.47;3.37;;;20.40;13.10;;;;;;5049205;28;20462;-64
2023/06/28 07:24:08;;;;;;;9.67;3.80;;;20.40;12.50;;;;;;5048626;28;20493;-64
2023/06/28 07:26:35;;;;;;;8.33;3.30;;;20.50;13.20;;;;;;5051230;28;20466;-64
2023/06/28 07:29:02;;;;;;;9.97;3.53;;;20.60;12.70;;;;;;5048964;28;20457;-64
2023/06/28 07:31:28;;;;;;;7.80;3.80;;;20.70;12.80;;;;;;5057887;28;20832;-64
2023/06/28 07:33:55;;;;;;;9.50;3.23;;;20.80;12.50;;;;;;5057842;28;20486;-65
2023/06/28 07:36:22;;;;;;;7.03;3.30;;;20.80;12.20;;;;;;5051756;28;20458;-64
2023/06/28 07:38:50;;;;;;;17.33;10.10;;;20.90;12.10;;;;;;5050846;28;20484;-64
2023/06/28 07:41:17;;;;;;;10.53;4.07;;;21.00;12.00;;;;;;5048595;28;20465;-65
2023/06/28 07:43:44;;;;;;;10.10;4.00;;;21.10;11.70;;;;;;5050372;28;20485;-64
2023/06/28 07:46:11;;;;;;;8.40;4.03;;;21.10;11.50;;;;;;5048830;28;20957;-64
2023/06/28 07:48:38;;;;;;;7.60;3.83;;;21.20;11.60;;;;;;5049567;28;20461;-64
2023/06/28 07:51:05;;;;;;;8.10;3.33;;;21.20;11.70;;;;;;5048576;28;20497;-64
2023/06/28 07:53:32;;;;;;;8.60;4.03;;;21.30;11.40;;;;;;5049463;28;20837;-63
2023/06/28 07:56:00;;;;;;;8.10;3.93;;;21.40;11.20;;;;;;5050246;28;20458;-64
2023/06/28 07:58:27;;;;;;;7.60;4.10;;;21.40;11.20;;;;;;5048241;28;21187;-64
2023/06/28 08:00:53;;;;;;;7.33;3.53;;;21.40;11.00;;;;;;5049190;28;20481;-65
2023/06/28 08:03:20;;;;;;;7.77;3.23;;;21.30;10.70;;;;;;5050026;28;20485;-64
2023/06/28 08:05:47;;;;;;;7.37;3.53;;;21.40;10.70;;;;;;5050355;28;20469;-64
2023/06/28 08:08:14;;;;;;;9.00;4.27;;;21.40;10.90;;;;;;5047664;28;20459;-63
2023/06/28 08:10:40;;;;;;;11.60;4.10;;;21.40;10.70;;;;;;5050163;28;20501;-64
2023/06/28 08:13:08;;;;;;;7.23;3.20;;;21.40;10.30;;;;;;5049287;28;20481;-64
2023/06/28 08:15:36;;;;;;;7.10;3.83;;;21.40;10.20;;;;;;5046530;28;20470;-65
2023/06/28 08:18:05;;;;;;;6.83;2.63;;;21.50;10.30;;;;;;5054234;28;20488;-64
2023/06/28 08:20:33;;;;;;;7.27;3.93;;;21.50;10.50;;;;;;5056474;28;20458;-64
2023/06/28 08:23:00;;;;;;;7.80;3.53;;;21.60;10.50;;;;;;5052149;28;20576;-64
2023/06/28 08:25:27;;;;;;;8.00;3.67;;;21.70;9.90;;;;;;5054159;28;20458;-64
2023/06/28 08:27:53;;;;;;;8.23;3.40;;;21.70;9.70;;;;;;5057925;28;20497;-64
2023/06/28 08:30:21;;;;;;;5.80;3.30;;;21.80;9.70;;;;;;5049729;28;20966;-65
2023/06/28 08:32:48;;;;;;;6.97;3.27;;;21.80;9.50;;;;;;5051156;28;20480;-64
2023/06/28 08:35:15;;;;;;;9.47;3.60;;;21.90;9.60;;;;;;5054891;28;20458;-64
2023/06/28 08:37:41;;;;;;;8.90;2.70;;;22.10;9.60;;;;;;5051401;28;20487;-64
2023/06/28 08:40:11;;;;;;;8.20;3.40;;;22.30;9.40;;;;;;5048464;28;20468;-64
2023/06/28 08:42:40;;;;;;;8.43;3.37;;;22.40;9.20;;;;;;5048149;28;20465;-64
2023/06/28 08:45:08;;;;;;;7.00;3.23;;;22.50;8.90;;;;;;5051580;28;20858;-65
2023/06/28 08:47:37;;;;;;;9.43;3.70;;;22.70;8.60;;;;;;5055903;28;20454;-64
2023/06/28 08:50:06;;;;;;;9.60;3.20;;;22.70;8.30;;;;;;5048754;28;20461;-65
2023/06/28 08:52:35;;;;;;;10.40;4.07;;;22.90;7.90;;;;;;5052498;28;20498;-64
2023/06/28 08:55:03;;;;;;;6.87;3.30;;;23.00;7.50;;;;;;5057576;28;20949;-65
2023/06/28 08:57:31;;;;;;;7.77;3.63;;;23.00;7.20;;;;;;5050517;28;20860;-64
2023/06/28 08:59:58;;;;;;;6.60;3.17;;;23.10;7.20;;;;;;5056609;28;20465;-64
2023/06/28 09:02:30;;;;;;;15.67;3.93;;;23.30;7.30;;;;;;5076512;28;20469;-65
2023/06/28 09:04:58;;;;;;;9.20;3.20;;;23.40;6.60;;;;;;5070028;28;20454;-65
2023/06/28 09:07:27;;;;;;;6.47;2.90;;;23.50;6.70;;;;;;5048646;28;20458;-65
2023/06/28 09:09:55;;;;;;;11.53;3.10;;;23.60;5.80;;;;;;5049329;28;21110;-65
2023/06/28 09:12:22;;;;;;;8.07;2.83;;;23.80;5.60;;;;;;5048066;28;20823;-64
2023/06/28 09:14:50;;;;;;;9.10;3.77;;;24.10;4.90;;;;;;5048697;28;20977;-65
2023/06/28 09:17:17;;;;;;;6.30;2.73;;;24.30;4.20;;;;;;5049031;28;20466;-65
2023/06/28 09:19:44;;;;;;;7.53;3.03;;;24.60;2.50;;;;;;5048949;28;20474;-65
2023/06/28 09:22:12;;;;;;;12.03;3.43;;;24.80;2.70;;;;;;5046601;28;20465;-64
2023/06/28 09:24:39;;;;;;;10.23;4.00;;;25.20;2.80;;;;;;5044376;28;20478;-65
2023/06/28 09:27:07;;;;;;;6.53;2.60;;;25.60;2.00;;;;;;5048784;28;20458;-65
2023/06/28 09:29:35;;;;;;;7.90;3.00;;;26.00;1.00;;;;;;5047570;28;20472;-65
2023/06/28 09:32:01;;;;;;;6.43;2.40;;;26.80;1.00;;;;;;5048172;28;20477;-64
2023/06/28 09:34:28;;;;;;;7.27;2.77;;;27.60;1.00;;;;;;5048298;28;20469;-65
2023/06/28 09:36:56;;;;;;;7.63;2.40;;;28.10;1.00;;;;;;5048934;28;20482;-64
2023/06/28 09:39:25;;;;;;;7.00;2.67;;;28.30;1.00;;;;;;5046797;28;20533;-64
2023/06/28 09:41:51;;;;;;;8.17;3.10;;;28.50;1.00;;;;;;5046051;28;20481;-65
2023/06/28 09:44:28;;;;;;;6.87;2.63;;;28.90;1.00;;;;;;5046971;28;20517;-65
2023/06/28 09:47:00;;;;;;;6.30;2.77;;;29.50;1.00;;;;;;5045782;28;20485;-64
2023/06/28 09:49:27;;;;;;;7.63;3.23;;;29.80;1.00;;;;;;5048652;28;21041;-65
2023/06/28 09:52:00;;;;;;;8.63;2.60;;;30.00;1.00;;;;;;5048501;28;20454;-65
2023/06/28 09:54:32;;;;;;;11.43;2.70;;;30.10;1.00;;;;;;5047185;28;20576;-64
2023/06/28 09:57:00;;;;;;;8.10;2.47;;;30.40;1.00;;;;;;5047411;28;20505;-65
2023/06/28 09:59:29;;;;;;;7.07;2.80;;;30.80;1.00;;;;;;5048354;28;20528;-65
2023/06/28 10:01:58;;;;;;;8.10;3.10;;;31.10;1.00;;;;;;5048111;28;20862;-65
2023/06/28 10:04:28;;;;;;;9.57;2.70;;;31.10;1.00;;;;;;5046431;28;20501;-65
2023/06/28 10:06:59;;;;;;;6.57;2.53;;;31.10;1.00;;;;;;5044948;28;20850;-65
2023/06/28 10:09:28;;;;;;;5.90;2.50;;;31.30;1.00;;;;;;5048259;28;20446;-65
2023/06/28 10:11:58;;;;;;;8.33;2.43;;;31.40;1.00;;;;;;5046652;28;20461;-65
2023/06/28 10:14:30;;;;;;;9.47;2.80;;;31.40;1.00;;;;;;5048594;28;20474;-66
2023/06/28 10:16:58;;;;;;;5.97;2.20;;;31.50;1.00;;;;;;5050830;28;20454;-65
2023/06/28 10:19:26;;;;;;;6.83;3.00;;;31.60;1.00;;;;;;5051662;28;20473;-65
2023/06/28 10:21:53;;;;;;;6.63;2.73;;;31.70;1.00;;;;;;5052313;28;20461;-66
2023/06/28 10:24:20;;;;;;;7.57;2.87;;;31.50;1.00;;;;;;5048652;28;20474;-65
2023/06/28 10:26:47;;;;;;;7.80;2.13;;;31.40;1.00;;;;;;5052079;28;20454;-64
2023/06/28 10:29:17;;;;;;;7.50;2.63;;;31.30;1.00;;;;;;5051441;28;20508;-65
2023/06/28 10:31:45;;;;;;;8.70;2.50;;;31.10;1.00;;;;;;5049351;28;20476;-64
2023/06/28 10:34:13;;;;;;;8.07;2.87;;;30.80;1.00;;;;;;5052572;28;20535;-65
2023/06/28 10:36:39;;;;;;;9.97;2.90;;;30.40;1.00;;;;;;5056911;28;20457;-64
2023/06/28 10:39:08;;;;;;;8.90;2.90;;;30.20;1.00;;;;;;5057164;28;20482;-65
2023/06/28 10:41:35;;;;;;;8.83;2.50;;;30.20;1.00;;;;;;5050756;28;20461;-64
2023/06/28 10:44:06;;;;;;;5.30;2.53;;;30.10;1.00;;;;;;5050119;28;20473;-65
2023/06/28 10:46:36;;;;;;;6.47;2.20;;;30.10;1.00;;;;;;5049657;28;20480;-65
2023/06/28 10:49:03;;;;;;;6.07;1.87;;;30.00;1.00;;;;;;5048418;28;20957;-65
2023/06/28 10:51:32;;;;;;;5.30;2.07;;;30.00;1.00;;;;;;5051519;28;20462;-65
2023/06/28 10:54:12;;;;;;;7.00;2.20;;;30.00;1.00;;;;;;5048669;28;20520;-65
2023/06/28 10:56:44;;;;;;;5.20;1.80;;;29.80;1.00;;;;;;5050893;28;20839;-65
2023/06/28 10:59:10;;;;;;;9.07;2.10;;;29.60;1.00;;;;;;5051133;28;20488;-65
2023/06/28 11:01:40;;;;;;;7.20;2.87;;;29.40;1.00;;;;;;5050127;28;21022;-65
2023/06/28 11:04:17;;;;;;;10.07;2.00;;;29.20;1.00;;;;;;5049765;28;20478;-65
2023/06/28 11:06:44;;;;;;;8.10;2.73;;;29.00;1.00;;;;;;5048149;28;20510;-65
2023/06/28 11:09:14;;;;;;;6.60;2.63;;;28.80;1.00;;;;;;5050885;28;20949;-65
2023/06/28 11:11:42;;;;;;;7.60;2.67;;;28.80;1.00;;;;;;5050283;28;20472;-65
2023/06/28 11:14:29;;;;;;;6.53;2.20;;;28.60;1.00;;;;;;5051064;28;20478;-65
2023/06/28 11:17:02;;;;;;;6.83;2.90;;;28.20;1.00;;;;;;5052473;28;20545;-64
2023/06/28 11:19:29;;;;;;;4.73;2.30;;;28.10;1.00;;;;;;5051272;28;20977;-65
2023/06/28 11:21:58;;;;;;;5.30;2.23;;;27.80;1.00;;;;;;5048442;28;20458;-65
2023/06/28 11:24:35;;;;;;;6.10;2.17;;;27.60;1.00;;;;;;5049033;28;20478;-66
2023/06/28 11:27:02;;;;;;;7.43;2.40;;;27.50;1.00;;;;;;5050918;28;20464;-66
2023/06/28 11:29:29;;;;;;;6.10;2.50;;;27.50;1.00;;;;;;5051548;28;20469;-65
2023/06/28 11:31:57;;;;;;;7.90;2.63;;;27.50;1.00;;;;;;5049308;28;20569;-64
2023/06/28 11:34:28;;;;;;;6.00;2.20;;;27.50;1.00;;;;;;5050500;28;20481;-65
2023/06/28 11:36:54;;;;;;;6.60;2.30;;;27.60;1.00;;;;;;5050959;28;20450;-65
2023/06/28 11:39:23;;;;;;;6.10;2.43;;;27.60;1.00;;;;;;5045329;28;20482;-65
2023/06/28 11:41:50;;;;;;;6.73;2.47;;;27.70;1.00;;;;;;5054747;28;20454;-65
2023/06/28 11:44:17;;;;;;;5.83;2.23;;;27.70;1.00;;;;;;5047018;28;20483;-65
2023/06/28 11:46:45;;;;;;;8.80;2.23;;;27.60;1.00;;;;;;5054103;28;20457;-65
2023/06/28 11:49:13;;;;;;;7.37;2.47;;;27.60;1.00;;;;;;5053677;28;20492;-65
2023/06/28 11:51:41;;;;;;;11.10;2.80;;;27.50;1.00;;;;;;5051913;28;20986;-65
2023/06/28 11:54:10;;;;;;;6.87;2.67;;;27.40;1.00;;;;;;5053456;28;20501;-64
2023/06/28 11:56:40;;;;;;;5.10;2.20;;;27.30;1.00;;;;;;5047572;28;20494;-65
2023/06/28 11:59:15;;;;;;;8.13;2.57;;;27.20;1.00;;;;;;5054309;28;20486;-65
2023/06/28 12:01:41;;;;;;;4.90;1.73;;;27.20;1.00;;;;;;5048784;28;20477;-65
2023/06/28 12:04:16;;;;;;;5.27;2.93;;;27.20;1.00;;;;;;5055876;28;20543;-65
2023/06/28 12:06:46;;;;;;;5.70;1.73;;;27.20;1.00;;;;;;5056201;28;20456;-65
2023/06/28 12:09:20;;;;;;;8.50;2.60;;;27.20;1.00;;;;;;5048678;28;20450;-64
2023/06/28 12:11:53;;;;;;;7.37;2.40;;;27.30;1.00;;;;;;5048212;28;20453;-64
2023/06/28 12:14:21;;;;;;;5.70;2.07;;;27.30;1.00;;;;;;5043975;28;20489;-64
2023/06/28 12:16:50;;;;;;;6.17;2.23;;;27.20;1.00;;;;;;5059164;28;20484;-65
2023/06/28 12:19:17;;;;;;;6.30;1.90;;;27.10;1.00;;;;;;5048326;28;20477;-65
2023/06/28 12:21:45;;;;;;;5.00;1.93;;;27.10;1.00;;;;;;5062866;28;20430;-66
2023/06/28 12:24:20;;;;;;;5.37;1.80;;;27.20;1.00;;;;;;5073635;28;20473;-65
2023/06/28 12:26:48;;;;;;;6.30;2.10;;;27.20;1.00;;;;;;5060636;28;20449;-65
2023/06/28 12:29:18;;;;;;;5.13;1.80;;;27.30;1.00;;;;;;5059476;28;20468;-65
2023/06/28 12:31:47;;;;;;;4.57;1.80;;;27.30;1.00;;;;;;5052894;28;20496;-64
2023/06/28 12:34:15;;;;;;;4.30;1.40;;;27.40;1.00;;;;;;5057076;28;20529;-65
2023/06/28 12:36:41;;;;;;;5.00;1.40;;;27.40;1.00;;;;;;5057891;28;20461;-65
2023/06/28 12:39:09;;;;;;;6.30;2.10;;;27.50;1.00;;;;;;5049815;28;21012;-65
2023/06/28 12:41:56;;;;;;;6.07;2.53;;;27.50;1.00;;;;;;5053381;28;20462;-64
2023/06/28 12:44:23;;;;;;;5.27;1.60;;;27.50;1.00;;;;;;5055545;28;20474;-65
2023/06/28 12:46:50;;;;;;;5.90;2.37;;;27.50;1.00;;;;;;5055260;28;20457;-66
2023/06/28 12:49:17;;;;;;;7.17;2.10;;;27.40;1.00;;;;;;5052989;28;20453;-65
2023/06/28 12:51:43;;;;;;;6.47;2.13;;;27.40;1.00;;;;;;5055453;28;20565;-65
2023/06/28 12:54:12;;;;;;;4.97;1.97;;;27.40;1.00;;;;;;5051451;28;20481;-65
2023/06/28 12:56:38;;;;;;;6.43;2.00;;;27.40;1.00;;;;;;5057276;28;20454;-65